메인 페이지
METAR-TAF:

METAR-TAF

공항 :

누메아 라 톤투타 국제공항, 뉴칼레도니아

위도: 22-01S, 경도: 166-13E, 고도: 16m

현재 날씨관측

예보는 10분 전, 03:00시(UTC)에 발표되었습니다.
7kt
온도 24°C
습도 78%
기압 1013 hPa
시정 10km 이상
고도 3700ft 상공 구름 많음
고도 5000ft 상공 흐림

METAR: NWWW 210300Z AUTO 18007KT 9999 BKN037 OVC050 24/20 Q1013 TEMPO SHRA FEW030TCU

시각: 14:10 (03:10 UTC)

예보

예보는 4 시간 10분 전, 23:00시(UTC)에 발표되었습니다.
예보 대상 시간: 21일 00시부터 21일 24시까지 (UTC)
여러 방향의 바람 2kt
시정 10km 이상
고도 3000ft 상공 구름 보통
고도 7000ft 상공 구름 많음
전환 중
21일 00시부터 21일 02시까지 (UTC)
남남동10kt
확률 30% :
일시적
21일 00시부터 21일 04시까지 (UTC)
고도 3000ft 상공 구름 조금, 타워링 적운.
소나기
전환 중
21일 06시부터 21일 08시까지 (UTC)
여러 방향의 바람 2kt
일시적
21일 15시부터 21일 21시까지 (UTC)
시정: 4000m
고도 1200ft 상공 구름 많음
고도 2000ft 상공 구름 조금, 타워링 적운.
소나기

TAF: NWWW 202300Z 2100/2124 VRB02KT 9999 SCT030 BKN070 BECMG 2100/2102 16010KT PROB30 TEMPO 2100/2104 SHRA FEW030TCU BECMG 2106/2108 VRB02KT TEMPO 2115/2121 4000 SHRA BKN012 FEW020TCU

4,000개 이상의 공항 관측 자료 및 예보 (METAR 및 TAF 보고).

지도상에서 검색 가능한 기상관측소가 노란 점과 빨간 점으로 표시되어 있습니다.

기상관측소 명을 보려면 표시 위로 마우스를 이동하세요.

날씨 관측과 예보를 보려면 클릭하세요.

지도 변경 : 확대하려면 엑스 표시가 있는 녹색 버튼, 축소하려면 빼기 표시가 있는 녹색 버튼, 다음 페이지의 지도를 보려면 녹색 화살표를 클릭하세요.


METAR-TAF: